< < Back
Terminal Aerodrome Forecast


Current Version              Previous Versions:   1  2  3  4  5  6  7  8  9  

Terminal Aerodrome Forecast

108
FTUS42 KFFC 282335
TAFCSG
TAF
KCSG 282335Z 2900/2924 27010G15KT P6SM FEW060
     FM290600 26006KT P6SM SCT250
     FM291100 26005KT P6SM SCT100
     FM291500 28010KT P6SM SCT040=

Latest METAR

919
SAUS70 KWBC 282100 RRT
MTRCSG
METAR KCSG 282351Z 28010KT 10SM CLR 33/17 A2997 RMK AO2 SLP141 T03280167
10350 20328 53000


USA.gov is the U.S. government's official web portal to all federal, state and local government web resources and services.